RORA(METAR)
08/23 15:00
RORA 230600Z 12009KT CAVOK 32/27 Q1009 RMK A2980=
戻る
トップページへ戻る
IMOC Co,.Ltd.